Barnaul, Russia
Current Conditions -  °F | °C
As of 1:30 AM on Friday 28 Nov 2014 (Local Time) from UNBB Reporting Station
Few Clouds Few Clouds  
Wind Chill: -27°   Ceiling: Unl
Heat Index: -6°   Visibility: 6mi
Dew Point: -13°   Wind: 16mph
Humidity: 71%   Direction: 310°NW
Pressure: 30"   Gusts: NA
Location:  53.36°N, 83.75°E
Report Text: UNBB 271830Z 31007MPS 9999 FEW040 M21/M25 Q1016 NOSIG RMKQFE740/0987 24401545
Loading
Personal Weather Stations






























Interactive Weather Map New forecast layout! Learn more

10-Day Weather Forecast

Advertisements
Track Severe Weather on mobile